createdAt,value
2018-12-27T00:02:04.250Z,98.51
2018-12-27T00:04:35.593Z,98.55
2018-12-27T00:07:06.753Z,98.54
2018-12-27T00:09:37.967Z,98.04
2018-12-27T00:12:09.360Z,97.88
2018-12-27T00:14:40.520Z,98.10
2018-12-27T00:17:11.920Z,98.84
2018-12-27T00:19:43.041Z,98.91
2018-12-27T00:22:14.820Z,99.10
2018-12-27T00:24:45.856Z,99.26
2018-12-27T00:27:17.522Z,98.85
2018-12-27T00:29:48.926Z,98.74
2018-12-27T00:32:20.225Z,98.72
2018-12-27T00:34:51.611Z,98.94
2018-12-27T00:37:22.906Z,98.99
2018-12-27T00:39:54.256Z,98.88
2018-12-27T00:42:25.903Z,98.62
2018-12-27T00:44:57.009Z,98.67
2018-12-27T00:47:28.395Z,98.80
2018-12-27T00:49:59.927Z,98.64
2018-12-27T00:52:31.654Z,98.86
2018-12-27T00:55:03.248Z,98.70
2018-12-27T00:57:34.535Z,98.53
2018-12-27T01:00:05.831Z,98.80
2018-12-27T01:02:37.243Z,99.11
2018-12-27T01:05:08.773Z,98.83
2018-12-27T01:07:40.043Z,99.00
2018-12-27T01:10:11.343Z,98.79
2018-12-27T01:12:45.199Z,98.86
2018-12-27T01:15:16.225Z,99.29
2018-12-27T01:17:47.223Z,99.48
2018-12-27T01:20:18.562Z,99.30
2018-12-27T01:22:49.990Z,99.23
2018-12-27T01:25:21.607Z,99.02
2018-12-27T01:27:52.652Z,98.42
2018-12-27T01:30:23.957Z,98.68
2018-12-27T01:32:56.112Z,98.46
2018-12-27T01:35:27.437Z,98.32
2018-12-27T01:37:58.741Z,97.92
2018-12-27T01:40:30.343Z,97.57
2018-12-27T01:43:01.954Z,97.18
2018-12-27T01:45:35.193Z,96.49
2018-12-27T01:48:07.016Z,96.01
2018-12-27T01:50:38.369Z,96.44
2018-12-27T01:53:09.933Z,96.23
2018-12-27T01:55:41.083Z,96.03
2018-12-27T01:58:12.207Z,96.85
2018-12-27T02:00:43.731Z,97.16
2018-12-27T02:03:15.382Z,96.82
2018-12-27T02:05:46.629Z,96.89
2018-12-27T02:08:17.933Z,97.04
2018-12-27T02:10:49.537Z,96.94
2018-12-27T02:13:21.007Z,97.80
2018-12-27T02:15:52.717Z,98.08
2018-12-27T02:18:24.593Z,98.50
2018-12-27T02:20:56.127Z,98.27
2018-12-27T02:23:27.692Z,97.60
2018-12-27T02:25:59.346Z,98.01
2018-12-27T02:28:31.172Z,97.96
2018-12-27T02:31:02.485Z,98.38
2018-12-27T02:33:35.383Z,98.55
2018-12-27T02:36:07.156Z,98.44
2018-12-27T02:38:38.411Z,98.89
2018-12-27T02:41:10.159Z,98.70
2018-12-27T02:43:41.428Z,98.39
2018-12-27T02:46:12.951Z,98.30
2018-12-27T02:48:43.956Z,98.38
2018-12-27T02:51:15.006Z,98.08
2018-12-27T02:53:47.049Z,98.47
2018-12-27T02:56:18.416Z,98.05
2018-12-27T02:58:49.844Z,97.89
2018-12-27T03:02:02.572Z,98.24
2018-12-27T03:04:53.993Z,98.00
2018-12-27T03:07:27.012Z,98.30
2018-12-27T03:09:58.491Z,98.35
2018-12-27T03:12:30.135Z,98.75
2018-12-27T03:15:01.552Z,98.52
2018-12-27T03:17:33.068Z,98.58
2018-12-27T03:20:05.146Z,98.46
2018-12-27T03:22:36.688Z,98.62
2018-12-27T03:25:08.351Z,98.99
2018-12-27T03:27:39.803Z,98.98
2018-12-27T03:30:10.849Z,98.96
2018-12-27T03:32:41.961Z,99.29
2018-12-27T03:35:13.196Z,99.01
2018-12-27T03:37:44.499Z,99.13
2018-12-27T03:40:16.268Z,97.94
2018-12-27T03:42:47.529Z,96.79
2018-12-27T03:45:19.281Z,96.61
2018-12-27T03:47:50.626Z,97.36
2018-12-27T03:50:22.147Z,97.54
2018-12-27T03:52:53.252Z,97.69
2018-12-27T03:55:24.761Z,97.06
2018-12-27T03:57:56.813Z,96.39
2018-12-27T04:00:28.066Z,95.71
2018-12-27T04:02:59.547Z,95.38
2018-12-27T04:05:30.850Z,96.27
2018-12-27T04:08:02.347Z,95.84
2018-12-27T04:10:33.929Z,95.87
2018-12-27T04:13:05.307Z,95.91
2018-12-27T04:15:37.556Z,95.77
2018-12-27T04:18:08.308Z,96.01
2018-12-27T04:20:39.579Z,96.24
2018-12-27T04:23:10.330Z,95.37
2018-12-27T04:25:41.345Z,95.69
2018-12-27T04:28:12.318Z,95.98
2018-12-27T04:30:43.611Z,95.86
2018-12-27T04:33:16.196Z,94.93
2018-12-27T04:35:49.081Z,94.77
2018-12-27T04:38:20.055Z,95.79
2018-12-27T04:40:51.571Z,95.63
2018-12-27T04:43:22.910Z,95.34
2018-12-27T04:45:54.151Z,95.96
2018-12-27T04:48:24.951Z,95.52
2018-12-27T04:50:55.949Z,95.46
2018-12-27T04:53:27.219Z,95.88
2018-12-27T04:56:00.476Z,96.03
2018-12-27T04:58:31.792Z,95.68
2018-12-27T05:01:03.264Z,96.07
2018-12-27T05:03:34.316Z,96.11
2018-12-27T05:06:05.076Z,95.85
2018-12-27T05:08:36.204Z,95.71
2018-12-27T05:11:07.147Z,95.62
2018-12-27T05:13:38.459Z,95.83
2018-12-27T05:16:09.758Z,95.57
2018-12-27T05:18:40.543Z,96.84
2018-12-27T05:21:11.532Z,97.22
2018-12-27T05:23:42.791Z,97.37
2018-12-27T05:26:13.552Z,97.57
2018-12-27T05:28:44.785Z,97.46
2018-12-27T05:31:15.931Z,97.38
2018-12-27T05:33:47.157Z,97.14
2018-12-27T05:36:18.027Z,97.63
2018-12-27T05:38:49.109Z,97.78
2018-12-27T05:41:20.108Z,98.13
2018-12-27T05:43:51.010Z,98.42
2018-12-27T05:46:22.020Z,98.29
2018-12-27T05:48:53.010Z,98.02
2018-12-27T05:51:24.108Z,97.51
2018-12-27T05:53:55.120Z,97.83
2018-12-27T05:56:26.400Z,97.67
2018-12-27T05:58:58.091Z,97.90
2018-12-27T06:01:33.729Z,97.68
2018-12-27T06:04:08.073Z,97.77
2018-12-27T06:06:43.064Z,97.49
2018-12-27T06:09:17.790Z,97.81
2018-12-27T06:11:49.306Z,98.18
2018-12-27T06:14:20.684Z,97.92
2018-12-27T06:16:51.753Z,98.04
2018-12-27T06:19:23.375Z,97.72
2018-12-27T06:21:55.196Z,98.04
2018-12-27T06:24:25.978Z,97.70
2018-12-27T06:26:57.546Z,97.70
2018-12-27T06:29:28.641Z,97.78
2018-12-27T06:31:59.520Z,98.22
2018-12-27T06:34:31.401Z,97.97
2018-12-27T06:37:02.992Z,98.06
2018-12-27T06:39:33.883Z,98.18
2018-12-27T06:42:06.209Z,98.16
2018-12-27T06:44:37.252Z,97.80
2018-12-27T06:47:08.357Z,97.54
2018-12-27T06:49:39.660Z,96.95
2018-12-27T06:52:11.531Z,97.01
2018-12-27T06:54:42.581Z,96.63
2018-12-27T06:57:13.346Z,96.80
2018-12-27T06:59:44.707Z,96.47
2018-12-27T07:02:16.167Z,96.76
2018-12-27T07:04:49.061Z,96.80
2018-12-27T07:07:19.932Z,96.09
2018-12-27T07:09:50.913Z,96.34
2018-12-27T07:12:21.963Z,96.63
2018-12-27T07:14:52.780Z,96.76
2018-12-27T07:17:24.047Z,96.15
2018-12-27T07:19:54.867Z,96.59
2018-12-27T07:22:26.167Z,96.86
2018-12-27T07:24:57.316Z,96.75
2018-12-27T07:27:28.388Z,96.83
2018-12-27T07:29:59.268Z,97.56
2018-12-27T07:32:30.377Z,97.65
2018-12-27T07:35:01.511Z,97.66
2018-12-27T07:37:33.292Z,97.76
2018-12-27T07:40:04.690Z,98.04
2018-12-27T07:42:35.782Z,98.29
2018-12-27T07:45:06.804Z,98.42
2018-12-27T07:47:37.927Z,98.08
2018-12-27T07:50:08.934Z,98.13
2018-12-27T07:52:40.177Z,98.49
2018-12-27T07:55:10.954Z,98.90
2018-12-27T07:57:42.029Z,98.40
2018-12-27T08:00:12.818Z,97.62
2018-12-27T08:03:21.793Z,98.04
2018-12-27T08:09:11.861Z,97.77
2018-12-27T08:11:43.089Z,98.03
2018-12-27T08:14:14.913Z,98.07
2018-12-27T08:16:45.926Z,97.34
2018-12-27T08:19:17.602Z,97.78
2018-12-27T08:21:48.880Z,97.64
2018-12-27T08:24:20.175Z,97.63
2018-12-27T08:26:51.532Z,97.44
2018-12-27T08:29:22.698Z,97.49
2018-12-27T08:31:54.054Z,97.34
2018-12-27T08:34:25.283Z,97.00
2018-12-27T08:36:56.538Z,96.92
2018-12-27T08:39:27.657Z,96.73
2018-12-27T08:41:58.452Z,96.54
2018-12-27T08:44:29.645Z,96.93
2018-12-27T08:47:00.727Z,96.78
2018-12-27T08:49:32.023Z,97.01
2018-12-27T08:52:03.522Z,97.20
2018-12-27T08:54:34.309Z,96.90
2018-12-27T08:57:05.283Z,96.46
2018-12-27T08:59:36.760Z,96.83
2018-12-27T09:02:08.383Z,96.87
2018-12-27T09:04:39.460Z,96.68
2018-12-27T09:07:10.515Z,96.52
2018-12-27T09:09:42.127Z,96.68
2018-12-27T09:12:13.636Z,96.54
2018-12-27T09:14:45.000Z,96.28
2018-12-27T09:17:18.479Z,95.65
2018-12-27T09:19:49.501Z,95.53
2018-12-27T09:22:20.593Z,95.19
2018-12-27T09:24:51.936Z,94.29
2018-12-27T09:27:23.052Z,94.45
2018-12-27T09:29:53.882Z,94.47
2018-12-27T09:32:24.702Z,94.35
2018-12-27T09:34:55.533Z,94.29
2018-12-27T09:37:26.424Z,93.77
2018-12-27T09:39:57.822Z,93.69
2018-12-27T09:42:29.037Z,94.20
2018-12-27T09:45:00.895Z,94.25
2018-12-27T09:47:32.222Z,93.37
2018-12-27T09:50:03.599Z,93.82
2018-12-27T09:52:34.404Z,94.54
2018-12-27T09:55:05.780Z,94.95
2018-12-27T09:57:36.579Z,93.83
2018-12-27T10:00:08.164Z,94.09
2018-12-27T10:02:39.291Z,94.11
2018-12-27T10:05:10.463Z,93.74
2018-12-27T10:07:41.435Z,93.53
2018-12-27T10:10:12.489Z,93.32
2018-12-27T10:12:44.019Z,93.19
2018-12-27T10:15:15.106Z,93.21
2018-12-27T10:17:46.341Z,93.65
2018-12-27T10:20:17.205Z,93.22
2018-12-27T10:22:48.446Z,92.55
2018-12-27T10:25:19.523Z,92.35
2018-12-27T10:27:50.332Z,92.32
2018-12-27T10:30:21.723Z,93.32
2018-12-27T10:32:53.047Z,93.06
2018-12-27T10:35:24.113Z,93.41
2018-12-27T10:37:55.129Z,93.54
2018-12-27T10:40:26.506Z,92.46
2018-12-27T10:42:57.495Z,92.72
2018-12-27T10:45:28.779Z,93.68
2018-12-27T10:47:59.751Z,92.78
2018-12-27T10:50:30.926Z,93.78
2018-12-27T10:53:02.191Z,94.22
2018-12-27T10:55:33.161Z,93.73
2018-12-27T10:58:04.027Z,93.80
2018-12-27T11:00:35.350Z,93.34
2018-12-27T11:03:06.379Z,94.20
2018-12-27T11:05:37.482Z,93.56
2018-12-27T11:11:51.159Z,93.25
2018-12-27T11:14:22.826Z,92.64
2018-12-27T11:20:25.823Z,92.70
2018-12-27T11:22:58.818Z,92.68
2018-12-27T11:25:29.678Z,93.85
2018-12-27T11:28:00.972Z,93.64
2018-12-27T11:30:31.998Z,94.64
2018-12-27T11:33:02.839Z,95.38
2018-12-27T11:35:34.383Z,95.33
2018-12-27T11:38:05.146Z,95.29
2018-12-27T11:40:35.991Z,95.97
2018-12-27T11:43:07.238Z,95.31
2018-12-27T11:45:38.477Z,94.99
2018-12-27T11:48:09.999Z,94.92
2018-12-27T11:50:40.763Z,94.86
2018-12-27T11:53:11.795Z,94.94
2018-12-27T11:55:42.627Z,95.16
2018-12-27T11:58:13.877Z,96.36
2018-12-27T12:00:44.961Z,96.37
2018-12-27T12:03:15.973Z,96.52
2018-12-27T12:05:47.081Z,96.09
2018-12-27T12:08:18.104Z,95.72
2018-12-27T12:10:48.979Z,95.81
2018-12-27T12:13:20.040Z,95.38
2018-12-27T12:15:51.066Z,95.10
2018-12-27T12:18:22.559Z,95.23
2018-12-27T12:20:53.383Z,95.33
2018-12-27T12:23:24.598Z,95.23
2018-12-27T12:25:55.502Z,94.25
2018-12-27T12:28:26.536Z,94.57
2018-12-27T12:30:57.575Z,94.35
2018-12-27T12:33:28.563Z,94.29
2018-12-27T12:35:59.619Z,93.94
2018-12-27T12:38:31.118Z,93.66
2018-12-27T12:41:02.202Z,93.83
2018-12-27T12:43:34.110Z,94.26
2018-12-27T12:46:05.512Z,94.79
2018-12-27T12:48:36.626Z,94.88
2018-12-27T12:51:08.019Z,94.28
2018-12-27T12:53:38.759Z,94.42
2018-12-27T12:56:09.511Z,94.21
2018-12-27T12:58:40.486Z,93.06
2018-12-27T13:01:11.229Z,92.88
2018-12-27T13:03:42.118Z,92.56
2018-12-27T13:06:17.946Z,93.98
2018-12-27T13:08:46.458Z,94.02
2018-12-27T13:11:17.442Z,94.71
2018-12-27T13:13:48.518Z,94.26
2018-12-27T13:16:19.745Z,93.92
2018-12-27T13:18:50.860Z,93.70
2018-12-27T13:21:22.338Z,93.12
2018-12-27T13:23:53.238Z,93.49
2018-12-27T13:26:24.475Z,93.52
2018-12-27T13:28:55.458Z,93.49
2018-12-27T13:31:26.686Z,93.38
2018-12-27T13:33:57.838Z,93.41
2018-12-27T13:36:28.873Z,94.12
2018-12-27T13:38:59.627Z,94.05
2018-12-27T13:41:30.382Z,94.30
2018-12-27T13:44:02.311Z,93.69
2018-12-27T13:46:33.283Z,94.21
2018-12-27T13:49:04.108Z,93.86
2018-12-27T13:51:35.869Z,93.86
2018-12-27T13:54:07.113Z,93.61
2018-12-27T13:56:38.472Z,93.73
2018-12-27T13:59:09.575Z,94.54
2018-12-27T14:01:40.679Z,92.49
2018-12-27T14:04:11.530Z,93.51
2018-12-27T14:06:42.587Z,94.14
2018-12-27T14:09:13.970Z,93.60
2018-12-27T14:11:45.047Z,94.03
2018-12-27T14:14:16.502Z,93.16
2018-12-27T14:16:47.532Z,93.94
2018-12-27T14:19:18.599Z,93.14
2018-12-27T14:21:49.566Z,93.13
2018-12-27T14:24:20.568Z,93.18
2018-12-27T14:26:51.880Z,94.29
2018-12-27T14:29:22.773Z,94.54
2018-12-27T14:31:53.986Z,94.45
2018-12-27T14:34:25.297Z,94.66
2018-12-27T14:36:56.759Z,95.07
2018-12-27T14:39:28.003Z,94.46
2018-12-27T14:41:58.819Z,94.91
2018-12-27T14:44:30.372Z,94.89
2018-12-27T14:47:01.628Z,95.19
2018-12-27T14:49:32.687Z,94.62
2018-12-27T14:52:03.932Z,94.57
2018-12-27T14:54:34.688Z,94.79
2018-12-27T14:57:05.668Z,94.98
2018-12-27T14:59:36.893Z,95.14
2018-12-27T15:02:07.939Z,94.86
2018-12-27T15:04:38.992Z,95.32
2018-12-27T15:07:10.236Z,95.31
2018-12-27T15:09:41.234Z,95.02
2018-12-27T15:12:12.199Z,95.08
2018-12-27T15:14:43.743Z,95.33
2018-12-27T15:17:14.736Z,96.21
2018-12-27T15:19:45.803Z,96.10
2018-12-27T15:22:16.814Z,95.62
2018-12-27T15:24:48.113Z,95.45
2018-12-27T15:27:20.762Z,95.41
2018-12-27T15:29:51.993Z,95.55
2018-12-27T15:32:24.704Z,95.55
2018-12-27T15:34:57.353Z,95.41
2018-12-27T15:38:23.839Z,95.20
2018-12-27T15:40:54.892Z,95.78
2018-12-27T15:43:25.962Z,95.50
2018-12-27T15:45:56.796Z,95.21
2018-12-27T15:48:27.835Z,95.71
2018-12-27T15:50:59.208Z,96.14
2018-12-27T15:53:49.420Z,96.26
2018-12-27T16:05:56.370Z,95.86
2018-12-27T16:08:48.029Z,96.24
2018-12-27T16:11:57.550Z,95.40
2018-12-27T16:14:49.408Z,95.54
2018-12-27T16:17:20.801Z,96.12
2018-12-27T16:20:10.975Z,96.17
2018-12-27T16:23:01.241Z,96.06
2018-12-27T16:25:33.866Z,96.35
2018-12-27T16:28:26.363Z,95.89
2018-12-27T16:30:57.995Z,95.87
2018-12-27T16:33:29.254Z,95.25
2018-12-27T16:36:00.803Z,95.17
2018-12-27T16:38:32.263Z,94.82
2018-12-27T16:41:03.288Z,94.98
2018-12-27T16:43:35.013Z,95.48
2018-12-27T16:46:06.256Z,96.19
2018-12-27T16:48:37.371Z,97.23
2018-12-27T16:51:08.117Z,96.24
2018-12-27T16:53:38.880Z,95.59
2018-12-27T16:56:10.103Z,95.76
2018-12-27T16:58:40.897Z,96.01
2018-12-27T17:01:11.643Z,96.71
2018-12-27T17:03:42.712Z,95.69
2018-12-27T17:06:13.455Z,95.66
2018-12-27T17:08:44.274Z,96.04
2018-12-27T17:11:15.261Z,95.57
2018-12-27T17:13:46.026Z,95.41
2018-12-27T17:16:17.008Z,95.53
2018-12-27T17:18:48.275Z,95.24
2018-12-27T17:21:19.531Z,94.87
2018-12-27T17:23:50.772Z,94.89
2018-12-27T17:26:21.807Z,95.23
2018-12-27T17:28:56.807Z,95.66
2018-12-27T17:31:27.847Z,95.46
2018-12-27T17:34:00.083Z,95.28
2018-12-27T17:36:30.935Z,95.28
2018-12-27T17:39:02.174Z,95.73
2018-12-27T17:41:33.471Z,95.92
2018-12-27T17:44:04.546Z,95.80
2018-12-27T17:46:36.150Z,95.67
2018-12-27T17:49:07.265Z,95.35
2018-12-27T17:51:38.240Z,95.52
2018-12-27T17:54:09.483Z,95.91
2018-12-27T17:56:40.480Z,95.60
2018-12-27T17:59:11.506Z,95.69
2018-12-27T18:01:43.161Z,95.46
2018-12-27T18:04:14.536Z,95.22
2018-12-27T18:06:45.303Z,95.53
2018-12-27T18:09:16.732Z,95.62
2018-12-27T18:11:47.763Z,95.45
2018-12-27T18:14:19.265Z,95.49
2018-12-27T18:16:50.608Z,95.20
2018-12-27T18:19:22.237Z,95.05
2018-12-27T18:21:53.875Z,95.39
2018-12-27T18:24:25.204Z,95.04
2018-12-27T18:26:56.584Z,95.38
2018-12-27T18:29:27.416Z,95.13
2018-12-27T18:31:58.567Z,95.15
2018-12-27T18:34:30.053Z,95.58
2018-12-27T18:37:00.980Z,95.51
2018-12-27T18:39:31.775Z,95.46
2018-12-27T18:42:02.709Z,95.84
2018-12-27T18:44:34.045Z,95.02
2018-12-27T18:47:05.255Z,95.30
2018-12-27T18:49:37.795Z,94.68
2018-12-27T18:52:09.386Z,94.65
2018-12-27T18:54:40.399Z,94.42
2018-12-27T18:57:11.863Z,94.92
2018-12-27T18:59:43.109Z,95.39
2018-12-27T19:02:14.363Z,95.10
2018-12-27T19:04:45.866Z,94.05
2018-12-27T19:07:16.849Z,94.51
2018-12-27T19:09:48.215Z,96.20
2018-12-27T19:12:55.131Z,96.00
2018-12-27T19:15:28.126Z,95.75
2018-12-27T19:18:03.098Z,95.39
2018-12-27T19:20:35.987Z,95.47
2018-12-27T19:23:16.598Z,95.73
2018-12-27T19:25:48.039Z,95.21
2018-12-27T19:28:19.296Z,94.88
2018-12-27T19:30:50.631Z,95.37
2018-12-27T19:33:21.644Z,95.44
2018-12-27T19:35:52.651Z,95.30
2018-12-27T19:38:23.399Z,95.50
2018-12-27T19:40:54.655Z,95.55
2018-12-27T19:43:25.671Z,95.80
2018-12-27T19:45:56.690Z,95.06
2018-12-27T19:48:27.674Z,96.18
2018-12-27T19:50:59.291Z,96.36
2018-12-27T19:53:30.422Z,95.63
2018-12-27T19:56:01.811Z,95.75
2018-12-27T19:58:32.664Z,94.86
2018-12-27T20:01:03.995Z,94.38
2018-12-27T20:03:35.201Z,95.28
2018-12-27T20:06:06.200Z,95.03
2018-12-27T20:08:37.175Z,94.99
2018-12-27T20:11:08.862Z,95.23
2018-12-27T20:13:40.136Z,95.64
2018-12-27T20:16:11.138Z,95.66
2018-12-27T20:18:41.886Z,95.42
2018-12-27T20:21:13.306Z,95.49
2018-12-27T20:23:44.668Z,95.68
2018-12-27T20:26:15.947Z,94.49
2018-12-27T20:28:47.355Z,95.13
2018-12-27T20:31:18.450Z,95.14
2018-12-27T20:33:49.959Z,95.37
2018-12-27T20:36:21.370Z,95.72
2018-12-27T20:38:52.364Z,95.60
2018-12-27T20:41:23.857Z,95.54
2018-12-27T20:43:54.891Z,95.34
2018-12-27T20:46:26.033Z,95.66
2018-12-27T20:48:57.345Z,95.30
2018-12-27T20:51:28.452Z,96.00
2018-12-27T20:53:59.244Z,95.24
2018-12-27T20:56:30.315Z,95.11
2018-12-27T20:59:01.433Z,94.63
2018-12-27T21:01:32.681Z,94.92
2018-12-27T21:04:03.715Z,95.32
2018-12-27T21:06:34.674Z,96.02
2018-12-27T21:09:06.924Z,95.18
2018-12-27T21:11:38.272Z,95.55
2018-12-27T21:14:09.513Z,95.11
2018-12-27T21:16:40.991Z,95.66
2018-12-27T21:19:12.002Z,95.56
2018-12-27T21:21:43.063Z,95.26
2018-12-27T21:24:14.527Z,95.97
2018-12-27T21:26:45.812Z,96.33
2018-12-27T21:29:17.045Z,96.15
2018-12-27T21:31:48.391Z,96.63
2018-12-27T21:34:19.404Z,95.92
2018-12-27T21:36:50.394Z,95.94
2018-12-27T21:39:21.492Z,95.93
2018-12-27T21:41:52.261Z,96.20
2018-12-27T21:44:23.509Z,96.46
2018-12-27T21:46:54.641Z,96.34
2018-12-27T21:49:25.576Z,95.63
2018-12-27T21:51:57.214Z,95.57
2018-12-27T21:54:28.445Z,96.14
2018-12-27T21:57:00.180Z,96.18
2018-12-27T21:59:31.611Z,95.88
2018-12-27T22:02:03.314Z,96.40
2018-12-27T22:04:34.586Z,95.93
2018-12-27T22:07:05.699Z,96.04
2018-12-27T22:09:36.773Z,95.89
2018-12-27T22:12:08.108Z,96.05
2018-12-27T22:14:39.374Z,95.57
2018-12-27T22:17:10.177Z,95.85
2018-12-27T22:19:41.224Z,95.57
2018-12-27T22:22:12.058Z,95.82
2018-12-27T22:24:43.039Z,96.11
2018-12-27T22:27:14.019Z,96.03
2018-12-27T22:29:45.048Z,95.52
2018-12-27T22:32:16.195Z,96.27
2018-12-27T22:34:47.209Z,96.21
2018-12-27T22:37:18.540Z,95.76
2018-12-27T22:39:49.777Z,96.35
2018-12-27T22:42:20.859Z,96.72
2018-12-27T22:44:51.870Z,96.49
2018-12-27T22:47:23.607Z,96.00
2018-12-27T22:49:54.578Z,96.10
2018-12-27T22:52:25.857Z,96.25
2018-12-27T22:54:56.940Z,95.73
2018-12-27T22:57:27.786Z,95.48
2018-12-27T22:59:58.759Z,95.47
2018-12-27T23:02:30.448Z,95.84
2018-12-27T23:05:01.720Z,95.50
2018-12-27T23:07:32.475Z,94.68
2018-12-27T23:10:04.547Z,95.64
2018-12-27T23:12:36.030Z,95.66
2018-12-27T23:15:07.091Z,95.98
2018-12-27T23:17:38.155Z,95.19
2018-12-27T23:20:09.303Z,95.16
2018-12-27T23:22:40.578Z,95.43
2018-12-27T23:25:11.323Z,94.95
2018-12-27T23:27:42.679Z,95.92
2018-12-27T23:30:13.983Z,96.02
2018-12-27T23:32:45.062Z,96.15
2018-12-27T23:35:16.047Z,96.44
2018-12-27T23:37:47.534Z,96.17
2018-12-27T23:40:18.791Z,96.02
2018-12-27T23:42:49.592Z,96.09
2018-12-27T23:45:20.563Z,96.81
2018-12-27T23:47:51.664Z,96.48
2018-12-27T23:50:22.995Z,96.48
2018-12-27T23:52:54.068Z,96.64
2018-12-27T23:55:24.827Z,96.26
2018-12-27T23:57:55.582Z,96.33
